createdAt,value
2019-02-24T00:00:48.251Z,7.72
2019-02-24T00:03:18.885Z,7.70
2019-02-24T00:05:49.697Z,9.05
2019-02-24T00:08:23.663Z,7.08
2019-02-24T00:10:56.971Z,8.15
2019-02-24T00:13:27.795Z,9.35
2019-02-24T00:15:58.535Z,7.58
2019-02-24T00:18:29.400Z,8.55
2019-02-24T00:21:00.165Z,8.28
2019-02-24T00:23:35.236Z,9.25
2019-02-24T00:26:09.789Z,8.80
2019-02-24T00:28:40.515Z,8.90
2019-02-24T00:31:13.996Z,11.18
2019-02-24T00:33:47.391Z,17.05
2019-02-24T00:36:18.165Z,26.82
2019-02-24T00:38:49.498Z,28.05
2019-02-24T00:41:20.807Z,24.37
2019-02-24T00:43:51.698Z,22.35
2019-02-24T00:46:24.758Z,19.95
2019-02-24T00:48:55.550Z,15.30
2019-02-24T00:51:26.625Z,17.55
2019-02-24T00:53:57.403Z,19.55
2019-02-24T00:56:28.119Z,17.62
2019-02-24T00:58:58.909Z,13.93
2019-02-24T01:01:29.723Z,12.43
2019-02-24T01:04:00.894Z,14.95
2019-02-24T01:06:31.677Z,15.55
2019-02-24T01:09:02.454Z,14.68
2019-02-24T01:11:34.446Z,14.47
2019-02-24T01:14:05.171Z,14.90
2019-02-24T01:16:36.385Z,15.10
2019-02-24T01:19:07.154Z,14.33
2019-02-24T01:21:38.115Z,14.05
2019-02-24T01:24:08.822Z,14.73
2019-02-24T01:26:41.160Z,10.03
2019-02-24T01:29:11.903Z,11.55
2019-02-24T01:31:42.760Z,10.88
2019-02-24T01:34:13.480Z,11.97
2019-02-24T01:36:45.485Z,10.63
2019-02-24T01:39:17.093Z,10.30
2019-02-24T01:41:47.863Z,11.25
2019-02-24T01:44:18.599Z,11.63
2019-02-24T01:46:49.397Z,13.58
2019-02-24T01:49:20.175Z,13.62
2019-02-24T01:51:50.927Z,11.93
2019-02-24T01:54:21.684Z,11.57
2019-02-24T01:56:52.454Z,10.78
2019-02-24T01:59:23.230Z,12.50
2019-02-24T02:01:53.945Z,9.40
2019-02-24T02:04:24.702Z,12.07
2019-02-24T02:06:55.480Z,10.95
2019-02-24T02:09:26.269Z,11.65
2019-02-24T02:11:56.974Z,12.65
2019-02-24T02:14:27.762Z,12.33
2019-02-24T02:16:58.522Z,13.20
2019-02-24T02:19:29.316Z,11.18
2019-02-24T02:22:00.042Z,13.83
2019-02-24T02:24:30.852Z,12.63
2019-02-24T02:27:01.685Z,13.05
2019-02-24T02:29:32.447Z,11.12
2019-02-24T02:32:03.152Z,12.05
2019-02-24T02:34:33.889Z,11.80
2019-02-24T02:37:04.662Z,12.23
2019-02-24T02:39:35.547Z,12.78
2019-02-24T02:42:06.293Z,12.73
2019-02-24T02:44:37.134Z,13.53
2019-02-24T02:47:07.933Z,10.90
2019-02-24T02:49:39.169Z,11.55
2019-02-24T02:52:09.848Z,10.00
2019-02-24T02:54:40.680Z,11.12
2019-02-24T02:57:11.465Z,10.30
2019-02-24T02:59:44.875Z,9.33
2019-02-24T03:02:24.161Z,10.23
2019-02-24T03:04:49.621Z,8.70
2019-02-24T03:07:24.645Z,9.10
2019-02-24T03:09:55.360Z,10.23
2019-02-24T03:12:26.189Z,10.80
2019-02-24T03:14:57.851Z,13.35
2019-02-24T03:17:28.819Z,14.10
2019-02-24T03:19:59.546Z,13.20
2019-02-24T03:22:30.803Z,13.78
2019-02-24T03:25:03.130Z,14.45
2019-02-24T03:27:33.831Z,14.53
2019-02-24T03:30:05.141Z,16.62
2019-02-24T03:32:37.445Z,13.95
2019-02-24T03:35:09.043Z,14.30
2019-02-24T03:37:39.794Z,13.53
2019-02-24T03:40:10.832Z,13.25
2019-02-24T03:42:41.650Z,12.78
2019-02-24T03:45:12.391Z,13.80
2019-02-24T03:47:44.671Z,12.93
2019-02-24T03:50:17.972Z,13.08
2019-02-24T03:52:48.726Z,13.00
2019-02-24T03:55:19.427Z,15.58
2019-02-24T03:57:50.270Z,13.68
2019-02-24T04:00:21.021Z,16.45
2019-02-24T04:02:51.778Z,20.70
2019-02-24T04:05:22.512Z,19.55
2019-02-24T04:07:54.299Z,21.75
2019-02-24T04:10:26.343Z,21.00
2019-02-24T04:12:57.094Z,19.07
2019-02-24T04:15:27.824Z,20.02
2019-02-24T04:17:58.584Z,20.72
2019-02-24T04:20:29.321Z,19.82
2019-02-24T04:23:00.105Z,18.75
2019-02-24T04:25:32.394Z,18.95
2019-02-24T04:28:03.128Z,17.90
2019-02-24T04:30:34.341Z,18.57
2019-02-24T04:33:05.165Z,19.98
2019-02-24T04:35:35.939Z,23.45
2019-02-24T04:38:06.696Z,22.27
2019-02-24T04:40:37.421Z,22.95
2019-02-24T04:43:08.213Z,20.43
2019-02-24T04:45:39.106Z,19.90
2019-02-24T04:48:11.319Z,19.90
2019-02-24T04:50:42.071Z,17.70
2019-02-24T04:53:15.156Z,17.42
2019-02-24T04:55:49.623Z,20.20
2019-02-24T04:58:23.919Z,27.67
2019-02-24T05:00:54.758Z,15.90
2019-02-24T05:03:28.170Z,15.08
2019-02-24T05:05:59.082Z,10.40
2019-02-24T05:08:31.488Z,9.35
2019-02-24T05:11:02.372Z,9.85
2019-02-24T05:13:34.371Z,9.35
2019-02-24T05:16:05.300Z,9.65
2019-02-24T05:18:39.160Z,8.55
2019-02-24T05:21:09.935Z,9.58
2019-02-24T05:23:42.885Z,11.18
2019-02-24T05:26:13.290Z,10.90
2019-02-24T05:28:45.633Z,11.75
2019-02-24T05:31:18.081Z,10.55
2019-02-24T05:33:48.998Z,12.25
2019-02-24T05:36:19.831Z,13.03
2019-02-24T05:38:50.537Z,12.47
2019-02-24T05:41:21.328Z,11.12
2019-02-24T05:43:52.074Z,13.13
2019-02-24T05:46:22.876Z,13.70
2019-02-24T05:48:53.684Z,15.10
2019-02-24T05:51:24.498Z,16.85
2019-02-24T05:53:55.319Z,14.93
2019-02-24T05:56:26.102Z,15.72
2019-02-24T05:58:59.047Z,16.05
2019-02-24T06:01:29.962Z,16.87
2019-02-24T06:04:00.710Z,20.08
2019-02-24T06:06:31.491Z,18.75
2019-02-24T06:09:02.338Z,16.27
2019-02-24T06:11:33.198Z,14.73
2019-02-24T06:14:06.868Z,12.95
2019-02-24T06:16:40.203Z,10.65
2019-02-24T06:19:11.013Z,9.03
2019-02-24T06:21:46.798Z,9.03
2019-02-24T06:24:17.750Z,9.18
2019-02-24T06:27:00.235Z,8.73
2019-02-24T06:29:35.283Z,7.83
2019-02-24T06:32:06.724Z,9.60
2019-02-24T06:34:39.758Z,8.35
2019-02-24T06:37:10.285Z,6.73
2019-02-24T06:39:40.815Z,6.60
2019-02-24T06:42:13.023Z,6.07
2019-02-24T06:44:43.474Z,6.03
2019-02-24T06:47:15.993Z,6.80
2019-02-24T06:49:48.062Z,5.90
2019-02-24T06:52:27.986Z,5.20
2019-02-24T06:54:59.092Z,5.07
2019-02-24T06:57:29.698Z,6.13
2019-02-24T07:00:04.454Z,5.70
2019-02-24T07:02:39.171Z,5.37
2019-02-24T07:05:11.305Z,4.90
2019-02-24T07:07:41.790Z,4.77
2019-02-24T07:10:12.399Z,4.27
2019-02-24T07:12:47.221Z,5.40
2019-02-24T07:15:22.844Z,5.57
2019-02-24T07:17:54.645Z,4.67
2019-02-24T07:24:11.344Z,4.97
2019-02-24T07:26:58.369Z,6.13
2019-02-24T07:29:29.309Z,6.63
2019-02-24T07:32:07.470Z,6.87
2019-02-24T07:34:38.083Z,7.33
2019-02-24T07:37:13.038Z,9.17
2019-02-24T07:39:54.833Z,9.33
2019-02-24T07:42:32.484Z,8.47
2019-02-24T07:45:06.252Z,8.60
2019-02-24T07:47:36.814Z,9.40
2019-02-24T07:53:20.465Z,12.93
2019-02-24T07:55:50.924Z,13.13
2019-02-24T07:58:21.380Z,12.17
2019-02-24T08:00:51.863Z,11.73
2019-02-24T08:03:23.160Z,10.40
2019-02-24T08:05:57.738Z,9.97
2019-02-24T08:08:28.330Z,12.77
2019-02-24T08:10:58.988Z,11.83
2019-02-24T08:13:29.748Z,10.97
2019-02-24T08:16:00.350Z,11.57
2019-02-24T08:18:30.823Z,9.97
2019-02-24T08:21:01.438Z,8.33
2019-02-24T08:23:32.017Z,7.17
2019-02-24T08:26:02.563Z,8.23
2019-02-24T08:28:34.670Z,7.97
2019-02-24T08:31:05.116Z,10.57
2019-02-24T08:33:40.502Z,9.97
2019-02-24T08:36:14.114Z,9.83
2019-02-24T08:38:47.815Z,8.77
2019-02-24T08:41:18.477Z,13.07
2019-02-24T08:43:53.661Z,10.73
2019-02-24T08:46:27.494Z,9.63
2019-02-24T08:52:14.740Z,11.27
2019-02-24T08:54:46.524Z,10.80
2019-02-24T09:00:58.919Z,10.17
2019-02-24T09:03:29.554Z,11.17
2019-02-24T09:06:03.095Z,12.27
2019-02-24T09:08:34.623Z,13.07
2019-02-24T09:11:05.650Z,11.80
2019-02-24T09:13:39.348Z,8.13
2019-02-24T09:16:09.488Z,6.73
2019-02-24T09:18:40.000Z,8.00
2019-02-24T09:21:27.289Z,7.60
2019-02-24T09:23:59.314Z,7.60
2019-02-24T09:26:29.887Z,6.80
2019-02-24T09:29:10.684Z,7.47
2019-02-24T09:31:43.906Z,8.07
2019-02-24T09:34:36.017Z,7.53
2019-02-24T09:37:07.408Z,7.97
2019-02-24T09:39:37.941Z,8.57
2019-02-24T09:42:19.181Z,6.60
2019-02-24T09:44:51.857Z,7.93
2019-02-24T09:50:04.189Z,8.37
2019-02-24T09:52:43.657Z,8.70
2019-02-24T09:55:14.142Z,8.57
2019-02-24T09:57:47.836Z,6.47
2019-02-24T10:00:25.539Z,6.77
2019-02-24T10:02:57.537Z,5.77
2019-02-24T10:05:33.771Z,5.87
2019-02-24T10:08:04.538Z,6.63
2019-02-24T10:11:07.301Z,5.53
2019-02-24T10:13:37.735Z,5.63
2019-02-24T10:19:16.045Z,6.20
2019-02-24T10:21:48.791Z,4.30
2019-02-24T10:24:20.608Z,4.40
2019-02-24T10:26:50.994Z,4.10
2019-02-24T10:29:21.548Z,5.10
2019-02-24T10:31:55.874Z,4.07
2019-02-24T10:34:26.328Z,6.37
2019-02-24T10:36:56.937Z,7.70
2019-02-24T10:39:29.864Z,5.90
2019-02-24T10:44:50.721Z,4.30
2019-02-24T10:47:21.176Z,3.47
2019-02-24T10:49:51.764Z,3.33
2019-02-24T10:52:31.372Z,3.47
2019-02-24T10:55:02.010Z,4.50
2019-02-24T10:57:46.859Z,4.67
2019-02-24T11:00:19.348Z,4.77
2019-02-24T11:02:49.794Z,6.33
2019-02-24T11:05:20.479Z,4.60
2019-02-24T11:07:50.930Z,3.53
2019-02-24T11:10:21.571Z,3.63
2019-02-24T11:12:55.218Z,2.40
2019-02-24T11:15:25.823Z,3.67
2019-02-24T11:17:56.251Z,3.80
2019-02-24T11:20:26.745Z,3.57
2019-02-24T11:23:16.222Z,3.87
2019-02-24T11:25:51.765Z,4.27
2019-02-24T11:28:23.601Z,3.50
2019-02-24T11:31:10.190Z,3.33
2019-02-24T11:33:40.641Z,3.93
2019-02-24T11:36:11.198Z,4.10
2019-02-24T11:41:53.325Z,4.00
2019-02-24T11:44:23.867Z,4.27
2019-02-24T11:47:18.112Z,4.13
2019-02-24T11:49:49.920Z,3.37
2019-02-24T11:52:20.492Z,3.67
2019-02-24T11:54:50.955Z,3.37
2019-02-24T11:57:24.659Z,3.00
2019-02-24T11:59:56.972Z,3.27
2019-02-24T12:02:34.152Z,2.80
2019-02-24T12:07:49.035Z,3.80
2019-02-24T12:10:19.480Z,4.30
2019-02-24T12:12:50.109Z,4.17
2019-02-24T12:15:22.025Z,4.03
2019-02-24T12:17:52.600Z,3.80
2019-02-24T12:20:25.454Z,3.00
2019-02-24T12:23:18.445Z,2.93
2019-02-24T12:25:48.969Z,3.33
2019-02-24T12:28:19.435Z,2.80
2019-02-24T12:30:51.900Z,2.83
2019-02-24T12:33:26.175Z,2.50
2019-02-24T12:38:54.625Z,3.97
2019-02-24T12:41:20.391Z,3.47
2019-02-24T12:43:53.545Z,3.33
2019-02-24T12:46:26.793Z,3.27
2019-02-24T12:48:57.358Z,3.00
2019-02-24T12:51:29.489Z,3.67
2019-02-24T12:54:00.008Z,3.50
2019-02-24T12:56:30.483Z,3.27
2019-02-24T12:59:00.897Z,2.93
2019-02-24T13:01:32.011Z,3.17
2019-02-24T13:04:03.590Z,2.93
2019-02-24T13:06:48.726Z,3.03
2019-02-24T13:09:45.245Z,3.07
2019-02-24T13:12:20.025Z,2.80
2019-02-24T13:14:50.831Z,2.90
2019-02-24T13:17:21.253Z,3.57
2019-02-24T13:19:51.733Z,4.63
2019-02-24T13:22:23.214Z,3.47
2019-02-24T13:24:57.557Z,6.43
2019-02-24T13:30:21.959Z,4.47
2019-02-24T13:32:52.396Z,4.30
2019-02-24T13:35:22.969Z,5.77
2019-02-24T13:37:53.510Z,4.97
2019-02-24T13:40:27.753Z,5.97
2019-02-24T13:42:58.198Z,7.37
2019-02-24T13:45:28.664Z,8.13
2019-02-24T13:47:59.100Z,7.63
2019-02-24T13:50:29.578Z,9.17
2019-02-24T13:53:02.796Z,10.00
2019-02-24T13:55:33.286Z,10.13
2019-02-24T13:58:04.567Z,9.30
2019-02-24T14:00:35.079Z,8.50
2019-02-24T14:03:05.507Z,6.97
2019-02-24T14:05:36.049Z,7.33
2019-02-24T14:08:06.478Z,7.23
2019-02-24T14:10:36.935Z,7.53
2019-02-24T14:13:07.440Z,8.50
2019-02-24T14:15:37.894Z,8.73
2019-02-24T14:18:09.824Z,9.57
2019-02-24T14:20:40.582Z,8.40
2019-02-24T14:23:11.065Z,7.47
2019-02-24T14:25:41.442Z,7.30
2019-02-24T14:28:11.894Z,6.70
2019-02-24T14:30:42.357Z,7.60
2019-02-24T14:33:12.859Z,5.63
2019-02-24T14:35:43.385Z,6.50
2019-02-24T14:38:13.842Z,6.70
2019-02-24T14:40:45.480Z,7.67
2019-02-24T14:43:15.931Z,5.40
2019-02-24T14:45:49.628Z,4.53
2019-02-24T14:48:18.483Z,4.13
2019-02-24T14:50:48.942Z,4.17
2019-02-24T14:53:19.504Z,4.10
2019-02-24T14:55:50.005Z,4.10
2019-02-24T14:58:22.119Z,4.10
2019-02-24T15:00:52.567Z,4.50
2019-02-24T15:03:23.125Z,4.10
2019-02-24T15:05:53.654Z,4.03
2019-02-24T15:08:24.089Z,9.50
2019-02-24T15:12:40.601Z,5.37
2019-02-24T15:14:27.542Z,5.70
2019-02-24T15:17:48.165Z,5.33
2019-02-24T15:19:54.122Z,6.60
2019-02-24T15:22:35.248Z,6.03
2019-02-24T15:25:02.849Z,6.00
2019-02-24T15:27:39.918Z,6.20
2019-02-24T15:30:23.735Z,6.77
2019-02-24T15:46:47.321Z,7.37
2019-02-24T15:52:25.728Z,7.07
2019-02-24T16:03:54.176Z,8.67
2019-02-24T16:22:32.890Z,11.57
2019-02-24T16:33:51.513Z,13.27
2019-02-24T16:36:25.293Z,12.43
2019-02-24T16:42:28.732Z,10.37
2019-02-24T16:45:03.676Z,9.80
2019-02-24T16:47:38.197Z,9.63
2019-02-24T16:57:04.612Z,12.43
2019-02-24T17:16:51.534Z,20.17
2019-02-24T17:19:24.956Z,21.80
2019-02-24T17:21:56.955Z,22.10
2019-02-24T17:27:58.370Z,20.10
2019-02-24T17:33:40.650Z,18.93
2019-02-24T17:39:20.435Z,15.30
2019-02-24T17:41:55.408Z,14.40
2019-02-24T17:54:07.868Z,9.77
2019-02-24T17:59:40.394Z,12.33
2019-02-24T18:02:14.296Z,10.63
2019-02-24T18:14:22.088Z,13.20
2019-02-24T18:25:49.581Z,11.63
2019-02-24T18:31:50.607Z,11.67
2019-02-24T18:34:48.600Z,11.27
2019-02-24T18:43:07.625Z,13.00
2019-02-24T18:48:37.143Z,10.77
2019-02-24T18:51:12.540Z,12.40
2019-02-24T18:53:43.131Z,11.17
2019-02-24T19:02:40.618Z,9.80
2019-02-24T19:08:35.748Z,8.83
2019-02-24T19:14:02.324Z,9.13
2019-02-24T19:19:48.445Z,8.70
2019-02-24T19:22:27.204Z,8.97
2019-02-24T19:28:04.873Z,8.73
2019-02-24T19:30:36.822Z,8.53
2019-02-24T19:33:23.686Z,8.37
2019-02-24T19:35:54.375Z,8.20
2019-02-24T19:41:22.066Z,8.40
2019-02-24T19:43:55.199Z,8.37
2019-02-24T19:49:21.098Z,8.00
2019-02-24T19:55:37.984Z,7.57
2019-02-24T19:58:18.052Z,7.93
2019-02-24T20:07:42.313Z,11.43
2019-02-24T21:07:12.655Z,8.10
2019-02-24T21:14:48.281Z,8.60
